sensor_id;sensor_type;location;lat;lon;timestamp;pressure;altitude;pressure_sealevel;temperature;humidity
71299;BME280;59083;47.974;21.722;2023-05-07T00:01:09;100382.00;;;15.75;100.00
71299;BME280;59083;47.974;21.722;2023-05-07T00:04:12;100372.91;;;15.76;100.00
71299;BME280;59083;47.974;21.722;2023-05-07T00:07:14;100373.50;;;15.78;100.00
71299;BME280;59083;47.974;21.722;2023-05-07T00:10:16;100380.75;;;15.78;100.00
71299;BME280;59083;47.974;21.722;2023-05-07T00:13:17;100389.63;;;15.78;100.00
71299;BME280;59083;47.974;21.722;2023-05-07T00:16:18;100378.44;;;15.81;100.00
71299;BME280;59083;47.974;21.722;2023-05-07T00:19:19;100388.00;;;15.77;100.00
71299;BME280;59083;47.974;21.722;2023-05-07T00:22:21;100382.16;;;15.80;100.00
71299;BME280;59083;47.974;21.722;2023-05-07T00:25:22;100386.94;;;15.78;100.00
71299;BME280;59083;47.974;21.722;2023-05-07T00:28:23;100362.44;;;15.68;100.00
71299;BME280;59083;47.974;21.722;2023-05-07T00:31:24;100393.97;;;15.79;100.00
71299;BME280;59083;47.974;21.722;2023-05-07T00:34:26;100389.87;;;15.77;100.00
71299;BME280;59083;47.974;21.722;2023-05-07T00:37:27;100392.75;;;15.75;100.00
71299;BME280;59083;47.974;21.722;2023-05-07T00:40:28;100389.25;;;15.75;100.00
71299;BME280;59083;47.974;21.722;2023-05-07T00:43:29;100396.50;;;15.74;100.00
71299;BME280;59083;47.974;21.722;2023-05-07T00:46:30;100387.81;;;15.72;100.00
71299;BME280;59083;47.974;21.722;2023-05-07T00:49:43;100392.87;;;15.62;100.00
71299;BME280;59083;47.974;21.722;2023-05-07T00:52:45;100389.75;;;15.65;100.00
71299;BME280;59083;47.974;21.722;2023-05-07T00:55:46;100387.06;;;15.65;100.00
71299;BME280;59083;47.974;21.722;2023-05-07T00:58:48;100388.38;;;15.56;100.00
71299;BME280;59083;47.974;21.722;2023-05-07T01:01:50;100381.38;;;15.55;100.00
71299;BME280;59083;47.974;21.722;2023-05-07T01:04:51;100387.19;;;15.52;100.00
71299;BME280;59083;47.974;21.722;2023-05-07T01:07:53;100389.00;;;15.58;100.00
71299;BME280;59083;47.974;21.722;2023-05-07T01:10:56;100395.25;;;15.52;100.00
71299;BME280;59083;47.974;21.722;2023-05-07T01:13:58;100401.62;;;15.51;100.00
71299;BME280;59083;47.974;21.722;2023-05-07T01:17:00;100402.06;;;15.48;100.00
71299;BME280;59083;47.974;21.722;2023-05-07T01:20:02;100399.97;;;15.50;100.00
71299;BME280;59083;47.974;21.722;2023-05-07T01:23:06;100402.41;;;15.58;100.00
71299;BME280;59083;47.974;21.722;2023-05-07T01:26:08;100402.25;;;15.53;100.00
71299;BME280;59083;47.974;21.722;2023-05-07T01:29:10;100408.25;;;15.55;100.00
71299;BME280;59083;47.974;21.722;2023-05-07T01:32:11;100406.16;;;15.57;100.00
71299;BME280;59083;47.974;21.722;2023-05-07T01:35:19;100396.69;;;15.48;100.00
71299;BME280;59083;47.974;21.722;2023-05-07T01:38:21;100396.25;;;15.51;100.00
71299;BME280;59083;47.974;21.722;2023-05-07T01:41:24;100399.97;;;15.50;100.00
71299;BME280;59083;47.974;21.722;2023-05-07T01:44:26;100395.03;;;15.47;100.00
71299;BME280;59083;47.974;21.722;2023-05-07T01:47:29;100397.72;;;15.47;100.00
71299;BME280;59083;47.974;21.722;2023-05-07T01:50:31;100394.59;;;15.50;100.00
71299;BME280;59083;47.974;21.722;2023-05-07T01:53:37;100405.34;;;15.50;100.00
71299;BME280;59083;47.974;21.722;2023-05-07T01:56:38;100396.25;;;15.51;100.00
71299;BME280;59083;47.974;21.722;2023-05-07T01:59:39;100398.28;;;15.55;100.00
71299;BME280;59083;47.974;21.722;2023-05-07T02:02:41;100398.28;;;15.55;100.00
71299;BME280;59083;47.974;21.722;2023-05-07T02:05:44;100407.00;;;15.51;100.00
71299;BME280;59083;47.974;21.722;2023-05-07T02:08:47;100398.41;;;15.42;100.00
71299;BME280;59083;47.974;21.722;2023-05-07T02:11:49;100399.22;;;15.43;100.00
71299;BME280;59083;47.974;21.722;2023-05-07T02:14:51;100401.75;;;15.38;100.00
71299;BME280;59083;47.974;21.722;2023-05-07T02:18:08;100400.09;;;15.37;100.00
71299;BME280;59083;47.974;21.722;2023-05-07T02:21:12;100398.84;;;15.32;100.00
71299;BME280;59083;47.974;21.722;2023-05-07T02:24:14;100390.38;;;15.36;100.00
71299;BME280;59083;47.974;21.722;2023-05-07T02:27:15;100391.78;;;15.38;100.00
71299;BME280;59083;47.974;21.722;2023-05-07T02:30:18;100388.94;;;15.33;100.00
71299;BME280;59083;47.974;21.722;2023-05-07T02:33:19;100392.66;;;15.32;100.00
71299;BME280;59083;47.974;21.722;2023-05-07T02:36:22;100392.28;;;15.28;100.00
71299;BME280;59083;47.974;21.722;2023-05-07T02:39:24;100386.31;;;15.26;100.00
71299;BME280;59083;47.974;21.722;2023-05-07T02:42:25;100387.13;;;15.27;100.00
71299;BME280;59083;47.974;21.722;2023-05-07T02:45:27;100387.38;;;15.25;100.00
71299;BME280;59083;47.974;21.722;2023-05-07T02:48:28;100389.44;;;15.23;100.00
71299;BME280;59083;47.974;21.722;2023-05-07T02:51:30;100387.62;;;15.17;100.00
71299;BME280;59083;47.974;21.722;2023-05-07T02:54:32;100384.72;;;15.19;100.00
71299;BME280;59083;47.974;21.722;2023-05-07T02:57:34;100393.44;;;15.14;100.00
71299;BME280;59083;47.974;21.722;2023-05-07T03:00:36;100397.16;;;15.13;100.00
71299;BME280;59083;47.974;21.722;2023-05-07T03:03:39;100383.31;;;15.10;100.00
71299;BME280;59083;47.974;21.722;2023-05-07T03:06:40;100394.13;;;15.03;100.00
71299;BME280;59083;47.974;21.722;2023-05-07T03:09:41;100399.28;;;14.98;100.00
71299;BME280;59083;47.974;21.722;2023-05-07T03:12:43;100400.78;;;14.94;100.00
71299;BME280;59083;47.974;21.722;2023-05-07T03:15:45;100396.25;;;14.88;100.00
71299;BME280;59083;47.974;21.722;2023-05-07T03:18:46;100401.22;;;14.91;100.00
71299;BME280;59083;47.974;21.722;2023-05-07T03:21:47;100396.69;;;14.92;100.00
71299;BME280;59083;47.974;21.722;2023-05-07T03:24:49;100401.22;;;14.91;100.00
71299;BME280;59083;47.974;21.722;2023-05-07T03:27:50;100402.06;;;14.85;100.00
71299;BME280;59083;47.974;21.722;2023-05-07T03:30:52;100401.28;;;14.78;100.00
71299;BME280;59083;47.974;21.722;2023-05-07T03:33:55;100401.91;;;14.80;100.00
71299;BME280;59083;47.974;21.722;2023-05-07T03:36:58;100411.16;;;14.84;100.00
71299;BME280;59083;47.974;21.722;2023-05-07T03:39:59;100409.09;;;14.86;100.00
71299;BME280;59083;47.974;21.722;2023-05-07T03:43:01;100418.16;;;14.85;100.00
71299;BME280;59083;47.974;21.722;2023-05-07T03:46:04;100425.19;;;14.86;100.00
71299;BME280;59083;47.974;21.722;2023-05-07T03:49:05;100424.94;;;14.94;100.00
71299;BME280;59083;47.974;21.722;2023-05-07T03:52:06;100435.00;;;14.99;100.00
71299;BME280;59083;47.974;21.722;2023-05-07T03:55:08;100432.50;;;15.04;100.00
71299;BME280;59083;47.974;21.722;2023-05-07T03:58:10;100439.56;;;14.98;100.00
71299;BME280;59083;47.974;21.722;2023-05-07T04:01:12;100440.37;;;14.99;100.00
71299;BME280;59083;47.974;21.722;2023-05-07T04:04:14;100443.87;;;14.99;100.00
71299;BME280;59083;47.974;21.722;2023-05-07T04:07:15;100447.56;;;15.05;100.00
71299;BME280;59083;47.974;21.722;2023-05-07T04:10:18;100444.69;;;15.06;100.00
71299;BME280;59083;47.974;21.722;2023-05-07T04:13:19;100453.94;;;15.10;100.00
71299;BME280;59083;47.974;21.722;2023-05-07T04:16:20;100459.72;;;15.14;100.00
71299;BME280;59083;47.974;21.722;2023-05-07T04:19:22;100458.78;;;15.26;100.00
71299;BME280;59083;47.974;21.722;2023-05-07T04:22:23;100465.56;;;15.36;100.00
71299;BME280;59083;47.974;21.722;2023-05-07T04:25:25;100460.41;;;15.34;100.00
71299;BME280;59083;47.974;21.722;2023-05-07T04:28:28;100462.59;;;15.44;100.00
71299;BME280;59083;47.974;21.722;2023-05-07T04:31:29;100466.53;;;15.48;100.00
71299;BME280;59083;47.974;21.722;2023-05-07T04:34:31;100472.72;;;15.55;100.00
71299;BME280;59083;47.974;21.722;2023-05-07T04:37:33;100471.91;;;15.48;100.00
71299;BME280;59083;47.974;21.722;2023-05-07T04:40:35;100472.75;;;15.42;100.00
71299;BME280;59083;47.974;21.722;2023-05-07T04:43:37;100474.41;;;15.43;100.00
71299;BME280;59083;47.974;21.722;2023-05-07T04:46:38;100482.19;;;15.51;100.00
71299;BME280;59083;47.974;21.722;2023-05-07T04:49:40;100477.75;;;15.69;100.00
71299;BME280;59083;47.974;21.722;2023-05-07T04:52:43;100490.88;;;15.84;100.00
71299;BME280;59083;47.974;21.722;2023-05-07T04:55:44;100494.22;;;16.04;100.00
71299;BME280;59083;47.974;21.722;2023-05-07T04:58:46;100497.50;;;16.06;100.00
71299;BME280;59083;47.974;21.722;2023-05-07T05:01:49;100501.41;;;16.10;100.00
71299;BME280;59083;47.974;21.722;2023-05-07T05:04:50;100505.66;;;16.18;100.00
71299;BME280;59083;47.974;21.722;2023-05-07T05:07:52;100504.03;;;16.17;100.00
71299;BME280;59083;47.974;21.722;2023-05-07T05:10:54;100508.34;;;16.43;100.00
71299;BME280;59083;47.974;21.722;2023-05-07T05:13:55;100506.81;;;16.72;100.00
71299;BME280;59083;47.974;21.722;2023-05-07T05:16:56;100517.88;;;17.48;99.56
71299;BME280;59083;47.974;21.722;2023-05-07T05:19:58;100513.56;;;18.58;93.84
71299;BME280;59083;47.974;21.722;2023-05-07T05:22:59;100511.16;;;20.15;86.10
71299;BME280;59083;47.974;21.722;2023-05-07T05:26:00;100510.81;;;21.54;79.43
71299;BME280;59083;47.974;21.722;2023-05-07T05:29:03;100518.31;;;22.80;72.40
71299;BME280;59083;47.974;21.722;2023-05-07T05:32:05;100513.31;;;21.34;76.63
71299;BME280;59083;47.974;21.722;2023-05-07T05:35:06;100513.12;;;21.67;77.45
71299;BME280;59083;47.974;21.722;2023-05-07T05:38:08;100515.81;;;23.40;67.29
71299;BME280;59083;47.974;21.722;2023-05-07T05:41:10;100518.63;;;24.26;64.61
71299;BME280;59083;47.974;21.722;2023-05-07T05:44:12;100530.44;;;25.12;59.99
71299;BME280;59083;47.974;21.722;2023-05-07T05:47:14;100522.94;;;24.63;62.03
71299;BME280;59083;47.974;21.722;2023-05-07T05:50:16;100531.03;;;24.93;60.83
71299;BME280;59083;47.974;21.722;2023-05-07T05:53:18;100530.59;;;24.15;58.91
71299;BME280;59083;47.974;21.722;2023-05-07T05:56:19;100538.13;;;24.84;58.82
71299;BME280;59083;47.974;21.722;2023-05-07T05:59:21;100544.28;;;22.60;60.64
71299;BME280;59083;47.974;21.722;2023-05-07T06:02:22;100546.44;;;20.54;66.01
71299;BME280;59083;47.974;21.722;2023-05-07T06:05:24;100547.53;;;19.74;70.56
71299;BME280;59083;47.974;21.722;2023-05-07T06:08:29;100543.31;;;19.50;71.77
71299;BME280;59083;47.974;21.722;2023-05-07T06:11:31;100544.63;;;19.48;70.71
71299;BME280;59083;47.974;21.722;2023-05-07T06:14:33;100547.94;;;19.26;71.90
71299;BME280;59083;47.974;21.722;2023-05-07T06:17:35;100545.84;;;19.85;70.15
71299;BME280;59083;47.974;21.722;2023-05-07T06:20:36;100533.09;;;19.40;69.11
71299;BME280;59083;47.974;21.722;2023-05-07T06:23:38;100533.16;;;19.57;68.16
71299;BME280;59083;47.974;21.722;2023-05-07T06:26:39;100540.50;;;20.23;66.80
71299;BME280;59083;47.974;21.722;2023-05-07T06:29:41;100538.31;;;20.54;66.75
71299;BME280;59083;47.974;21.722;2023-05-07T06:32:45;100538.87;;;20.22;68.53
71299;BME280;59083;47.974;21.722;2023-05-07T06:35:46;100536.38;;;20.33;67.99
71299;BME280;59083;47.974;21.722;2023-05-07T06:38:48;100535.22;;;21.81;62.84
71299;BME280;59083;47.974;21.722;2023-05-07T06:41:49;100539.94;;;20.55;65.00
71299;BME280;59083;47.974;21.722;2023-05-07T06:44:51;100538.75;;;19.67;69.59
71299;BME280;59083;47.974;21.722;2023-05-07T06:47:53;100540.69;;;19.15;72.44
71299;BME280;59083;47.974;21.722;2023-05-07T06:50:54;100534.91;;;18.95;73.96
71299;BME280;59083;47.974;21.722;2023-05-07T06:53:58;100541.13;;;18.95;73.79
71299;BME280;59083;47.974;21.722;2023-05-07T06:57:00;100540.12;;;18.62;76.61
71299;BME280;59083;47.974;21.722;2023-05-07T07:00:02;100545.72;;;18.48;77.37
71299;BME280;59083;47.974;21.722;2023-05-07T07:03:05;100536.97;;;18.00;80.53
71299;BME280;59083;47.974;21.722;2023-05-07T07:06:07;100538.28;;;17.97;80.28
71299;BME280;59083;47.974;21.722;2023-05-07T07:09:08;100546.16;;;17.99;79.44
71299;BME280;59083;47.974;21.722;2023-05-07T07:12:10;100556.66;;;17.89;80.24
71299;BME280;59083;47.974;21.722;2023-05-07T07:15:13;100552.41;;;17.69;81.16
71299;BME280;59083;47.974;21.722;2023-05-07T07:18:15;100560.41;;;17.76;80.97
71299;BME280;59083;47.974;21.722;2023-05-07T07:21:17;100558.38;;;17.71;80.30
71299;BME280;59083;47.974;21.722;2023-05-07T07:24:18;100567.53;;;17.52;80.95
71299;BME280;59083;47.974;21.722;2023-05-07T07:27:22;100566.84;;;17.27;81.34
71299;BME280;59083;47.974;21.722;2023-05-07T07:30:24;100574.75;;;17.40;80.92
71299;BME280;59083;47.974;21.722;2023-05-07T07:33:27;100575.81;;;17.21;82.08
71299;BME280;59083;47.974;21.722;2023-05-07T07:36:28;100577.09;;;17.18;84.92
71299;BME280;59083;47.974;21.722;2023-05-07T07:39:29;100577.59;;;17.45;83.10
71299;BME280;59083;47.974;21.722;2023-05-07T07:42:31;100579.44;;;17.45;82.25
71299;BME280;59083;47.974;21.722;2023-05-07T07:45:32;100576.75;;;17.45;81.87
71299;BME280;59083;47.974;21.722;2023-05-07T07:48:35;100586.59;;;17.21;83.85
71299;BME280;59083;47.974;21.722;2023-05-07T07:51:36;100579.25;;;17.10;83.89
71299;BME280;59083;47.974;21.722;2023-05-07T07:54:37;100575.47;;;17.17;83.96
71299;BME280;59083;47.974;21.722;2023-05-07T07:57:39;100581.22;;;17.03;84.99
71299;BME280;59083;47.974;21.722;2023-05-07T08:00:40;100588.38;;;17.09;83.24
71299;BME280;59083;47.974;21.722;2023-05-07T08:03:42;100586.22;;;16.99;84.12
71299;BME280;59083;47.974;21.722;2023-05-07T08:06:43;100588.84;;;17.24;83.60
71299;BME280;59083;47.974;21.722;2023-05-07T08:09:45;100585.75;;;17.39;82.48
71299;BME280;59083;47.974;21.722;2023-05-07T08:12:48;100589.87;;;17.23;82.77
71299;BME280;59083;47.974;21.722;2023-05-07T08:15:50;100583.13;;;17.32;83.09
71299;BME280;59083;47.974;21.722;2023-05-07T08:18:51;100584.91;;;17.56;81.28
71299;BME280;59083;47.974;21.722;2023-05-07T08:21:52;100584.62;;;17.46;82.30
71299;BME280;59083;47.974;21.722;2023-05-07T08:24:55;100585.50;;;17.77;82.23
71299;BME280;59083;47.974;21.722;2023-05-07T08:27:56;100580.19;;;18.23;79.53
71299;BME280;59083;47.974;21.722;2023-05-07T08:30:58;100580.47;;;18.80;76.76
71299;BME280;59083;47.974;21.722;2023-05-07T08:34:03;100574.72;;;20.30;70.83
71299;BME280;59083;47.974;21.722;2023-05-07T08:37:04;100570.66;;;21.21;68.53
71299;BME280;59083;47.974;21.722;2023-05-07T08:40:07;100557.66;;;21.23;67.32
71299;BME280;59083;47.974;21.722;2023-05-07T08:43:12;100556.47;;;20.97;66.19
71299;BME280;59083;47.974;21.722;2023-05-07T08:46:17;100555.06;;;22.50;62.75
71299;BME280;59083;47.974;21.722;2023-05-07T08:49:20;100558.91;;;21.91;62.52
71299;BME280;59083;47.974;21.722;2023-05-07T08:52:21;100565.47;;;21.41;64.86
71299;BME280;59083;47.974;21.722;2023-05-07T08:55:24;100570.47;;;20.67;66.83
71299;BME280;59083;47.974;21.722;2023-05-07T08:58:25;100568.16;;;20.26;68.97
71299;BME280;59083;47.974;21.722;2023-05-07T09:01:26;100567.78;;;21.54;64.75
71299;BME280;59083;47.974;21.722;2023-05-07T09:04:28;100566.00;;;21.92;62.91
71299;BME280;59083;47.974;21.722;2023-05-07T09:07:30;100561.94;;;21.94;63.22
71299;BME280;59083;47.974;21.722;2023-05-07T09:10:33;100566.06;;;21.04;67.38
71299;BME280;59083;47.974;21.722;2023-05-07T09:13:37;100562.03;;;20.85;67.38
71299;BME280;59083;47.974;21.722;2023-05-07T09:16:39;100562.78;;;20.81;68.04
71299;BME280;59083;47.974;21.722;2023-05-07T09:19:40;100565.22;;;21.21;68.51
71299;BME280;59083;47.974;21.722;2023-05-07T09:22:42;100552.78;;;21.47;65.65
71299;BME280;59083;47.974;21.722;2023-05-07T09:25:45;100569.47;;;20.73;67.84
71299;BME280;59083;47.974;21.722;2023-05-07T09:28:47;100549.28;;;20.31;69.46
71299;BME280;59083;47.974;21.722;2023-05-07T09:31:48;100566.13;;;19.71;71.81
71299;BME280;59083;47.974;21.722;2023-05-07T09:34:50;100567.25;;;19.18;74.63
71299;BME280;59083;47.974;21.722;2023-05-07T09:37:55;100564.25;;;19.31;73.46
71299;BME280;59083;47.974;21.722;2023-05-07T09:41:09;100557.59;;;19.22;72.54
71299;BME280;59083;47.974;21.722;2023-05-07T09:44:11;100565.87;;;19.72;70.70
71299;BME280;59083;47.974;21.722;2023-05-07T09:47:18;100550.81;;;20.38;67.33
71299;BME280;59083;47.974;21.722;2023-05-07T09:50:23;100555.78;;;20.46;65.90
71299;BME280;59083;47.974;21.722;2023-05-07T09:53:27;100549.97;;;20.38;65.12
71299;BME280;59083;47.974;21.722;2023-05-07T09:56:30;100547.66;;;20.30;64.90
71299;BME280;59083;47.974;21.722;2023-05-07T09:59:34;100554.19;;;20.17;65.50
71299;BME280;59083;47.974;21.722;2023-05-07T10:02:36;100550.59;;;20.45;67.65
71299;BME280;59083;47.974;21.722;2023-05-07T10:05:38;100548.16;;;20.27;65.96
71299;BME280;59083;47.974;21.722;2023-05-07T10:08:42;100545.19;;;20.11;66.28
71299;BME280;59083;47.974;21.722;2023-05-07T10:11:44;100556.97;;;19.89;67.47
71299;BME280;59083;47.974;21.722;2023-05-07T10:14:47;100546.28;;;20.10;65.33
71299;BME280;59083;47.974;21.722;2023-05-07T10:17:49;100554.31;;;19.60;66.97
71299;BME280;59083;47.974;21.722;2023-05-07T10:20:53;100547.31;;;19.76;66.73
71299;BME280;59083;47.974;21.722;2023-05-07T10:23:59;100546.31;;;19.82;66.34
71299;BME280;59083;47.974;21.722;2023-05-07T10:27:06;100543.47;;;20.05;65.64
71299;BME280;59083;47.974;21.722;2023-05-07T10:33:13;100530.16;;;20.92;63.48
71299;BME280;59083;47.974;21.722;2023-05-07T10:36:16;100520.53;;;21.23;64.16
71299;BME280;59083;47.974;21.722;2023-05-07T10:39:20;100528.19;;;20.88;64.09
71299;BME280;59083;47.974;21.722;2023-05-07T10:42:23;100531.03;;;20.98;64.86
71299;BME280;59083;47.974;21.722;2023-05-07T10:45:25;100528.59;;;20.58;65.59
71299;BME280;59083;47.974;21.722;2023-05-07T10:48:26;100527.38;;;20.87;65.79
71299;BME280;59083;47.974;21.722;2023-05-07T10:51:29;100525.47;;;21.10;64.15
71299;BME280;59083;47.974;21.722;2023-05-07T10:54:32;100533.03;;;21.51;63.27
71299;BME280;59083;47.974;21.722;2023-05-07T10:57:35;100524.94;;;21.56;62.91
71299;BME280;59083;47.974;21.722;2023-05-07T11:04:15;100532.81;;;21.31;58.85
71299;BME280;59083;47.974;21.722;2023-05-07T11:07:26;100515.78;;;22.21;58.45
71299;BME280;59083;47.974;21.722;2023-05-07T11:10:55;100515.50;;;22.22;58.40
71299;BME280;59083;47.974;21.722;2023-05-07T11:13:57;100516.62;;;21.95;60.01
71299;BME280;59083;47.974;21.722;2023-05-07T11:17:04;100510.50;;;21.77;60.24
71299;BME280;59083;47.974;21.722;2023-05-07T11:20:06;100515.13;;;21.23;59.23
71299;BME280;59083;47.974;21.722;2023-05-07T11:23:08;100508.09;;;21.06;60.97
71299;BME280;59083;47.974;21.722;2023-05-07T11:26:10;100502.16;;;21.09;60.72
71299;BME280;59083;47.974;21.722;2023-05-07T11:29:19;100502.63;;;20.79;59.42
71299;BME280;59083;47.974;21.722;2023-05-07T11:35:25;100499.78;;;21.34;59.90
71299;BME280;59083;47.974;21.722;2023-05-07T11:38:28;100503.22;;;21.08;59.06
71299;BME280;59083;47.974;21.722;2023-05-07T11:41:36;100505.88;;;20.81;59.40
71299;BME280;59083;47.974;21.722;2023-05-07T11:44:44;100490.97;;;21.22;58.95
71299;BME280;59083;47.974;21.722;2023-05-07T11:47:46;100494.34;;;21.34;57.31
71299;BME280;59083;47.974;21.722;2023-05-07T11:50:52;100501.28;;;21.25;57.38
71299;BME280;59083;47.974;21.722;2023-05-07T11:53:53;100498.69;;;20.91;56.02
71299;BME280;59083;47.974;21.722;2023-05-07T11:56:55;100497.41;;;21.16;56.43
71299;BME280;59083;47.974;21.722;2023-05-07T11:59:57;100496.09;;;21.45;57.75
71299;BME280;59083;47.974;21.722;2023-05-07T12:03:04;100487.81;;;21.30;56.32
71299;BME280;59083;47.974;21.722;2023-05-07T12:06:06;100490.03;;;21.38;56.52
71299;BME280;59083;47.974;21.722;2023-05-07T12:09:07;100488.94;;;20.69;56.95
71299;BME280;59083;47.974;21.722;2023-05-07T12:12:13;100481.50;;;20.59;57.15
71299;BME280;59083;47.974;21.722;2023-05-07T12:15:17;100472.56;;;20.80;56.14
71299;BME280;59083;47.974;21.722;2023-05-07T12:18:19;100481.25;;;20.82;56.80
71299;BME280;59083;47.974;21.722;2023-05-07T12:21:21;100484.28;;;20.64;55.30
71299;BME280;59083;47.974;21.722;2023-05-07T12:24:24;100484.44;;;20.79;55.26
71299;BME280;59083;47.974;21.722;2023-05-07T12:27:26;100472.66;;;20.90;54.75
71299;BME280;59083;47.974;21.722;2023-05-07T12:30:27;100474.19;;;20.81;53.61
71299;BME280;59083;47.974;21.722;2023-05-07T12:33:28;100479.44;;;20.88;52.74
71299;BME280;59083;47.974;21.722;2023-05-07T12:36:39;100471.06;;;20.89;52.45
71299;BME280;59083;47.974;21.722;2023-05-07T12:40:03;100463.34;;;20.81;53.11
71299;BME280;59083;47.974;21.722;2023-05-07T12:43:07;100466.66;;;20.83;53.28
71299;BME280;59083;47.974;21.722;2023-05-07T12:46:09;100476.84;;;21.20;53.15
71299;BME280;59083;47.974;21.722;2023-05-07T12:49:10;100493.34;;;20.96;55.00
71299;BME280;59083;47.974;21.722;2023-05-07T12:52:11;100474.50;;;20.85;55.64
71299;BME280;59083;47.974;21.722;2023-05-07T12:55:16;100470.31;;;20.72;55.69
71299;BME280;59083;47.974;21.722;2023-05-07T12:58:24;100472.31;;;20.60;55.96
71299;BME280;59083;47.974;21.722;2023-05-07T13:01:30;100471.03;;;20.46;55.78
71299;BME280;59083;47.974;21.722;2023-05-07T13:04:32;100463.72;;;20.46;56.50
71299;BME280;59083;47.974;21.722;2023-05-07T13:07:34;100465.84;;;20.28;55.81
71299;BME280;59083;47.974;21.722;2023-05-07T13:10:35;100461.69;;;20.37;55.85
71299;BME280;59083;47.974;21.722;2023-05-07T13:13:38;100470.53;;;20.49;55.60
71299;BME280;59083;47.974;21.722;2023-05-07T13:16:39;100464.78;;;20.29;56.00
71299;BME280;59083;47.974;21.722;2023-05-07T13:19:41;100475.34;;;20.08;55.92
71299;BME280;59083;47.974;21.722;2023-05-07T13:22:42;100492.78;;;19.84;55.58
71299;BME280;59083;47.974;21.722;2023-05-07T13:25:43;100487.31;;;19.79;56.28
71299;BME280;59083;47.974;21.722;2023-05-07T13:28:44;100503.50;;;19.34;56.40
71299;BME280;59083;47.974;21.722;2023-05-07T13:31:45;100517.66;;;19.24;56.44
71299;BME280;59083;47.974;21.722;2023-05-07T13:34:47;100502.03;;;19.43;55.93
71299;BME280;59083;47.974;21.722;2023-05-07T13:37:48;100499.38;;;19.03;55.42
71299;BME280;59083;47.974;21.722;2023-05-07T13:40:49;100505.66;;;19.20;54.92
71299;BME280;59083;47.974;21.722;2023-05-07T13:43:51;100503.28;;;19.07;53.56
71299;BME280;59083;47.974;21.722;2023-05-07T13:46:52;100489.91;;;19.01;53.20
71299;BME280;59083;47.974;21.722;2023-05-07T13:49:53;100493.25;;;18.79;52.89
71299;BME280;59083;47.974;21.722;2023-05-07T13:52:54;100476.34;;;18.72;53.15
71299;BME280;59083;47.974;21.722;2023-05-07T13:55:56;100477.75;;;18.51;52.73
71299;BME280;59083;47.974;21.722;2023-05-07T13:58:57;100470.38;;;18.35;53.29
71299;BME280;59083;47.974;21.722;2023-05-07T14:01:58;100477.31;;;17.96;54.21
71299;BME280;59083;47.974;21.722;2023-05-07T14:04:59;100481.66;;;18.09;54.52
71299;BME280;59083;47.974;21.722;2023-05-07T14:08:00;100487.28;;;18.19;54.04
71299;BME280;59083;47.974;21.722;2023-05-07T14:11:02;100484.81;;;17.94;54.30
71299;BME280;59083;47.974;21.722;2023-05-07T14:14:03;100511.78;;;18.06;54.22
71299;BME280;59083;47.974;21.722;2023-05-07T14:17:04;100514.72;;;17.93;54.55
71299;BME280;59083;47.974;21.722;2023-05-07T14:20:06;100527.94;;;17.71;55.25
71299;BME280;59083;47.974;21.722;2023-05-07T14:23:08;100537.59;;;17.60;56.08
71299;BME280;59083;47.974;21.722;2023-05-07T14:26:09;100554.09;;;17.34;57.27
71299;BME280;59083;47.974;21.722;2023-05-07T14:29:10;100568.38;;;17.53;56.48
71299;BME280;59083;47.974;21.722;2023-05-07T14:32:11;100568.63;;;17.33;55.77
71299;BME280;59083;47.974;21.722;2023-05-07T14:35:13;100566.25;;;17.25;55.22
71299;BME280;59083;47.974;21.722;2023-05-07T14:38:14;100580.31;;;17.27;55.21
71299;BME280;59083;47.974;21.722;2023-05-07T14:41:16;100590.38;;;17.31;55.84
71299;BME280;59083;47.974;21.722;2023-05-07T14:44:17;100601.88;;;16.90;55.32
71299;BME280;59083;47.974;21.722;2023-05-07T14:47:19;100597.06;;;16.74;55.32
71299;BME280;59083;47.974;21.722;2023-05-07T14:50:20;100604.41;;;16.85;54.82
71299;BME280;59083;47.974;21.722;2023-05-07T14:53:22;100596.63;;;16.77;54.32
71299;BME280;59083;47.974;21.722;2023-05-07T14:56:23;100602.16;;;16.82;53.67
71299;BME280;59083;47.974;21.722;2023-05-07T14:59:24;100611.22;;;16.63;54.10
71299;BME280;59083;47.974;21.722;2023-05-07T15:02:25;100614.94;;;16.69;54.50
71299;BME280;59083;47.974;21.722;2023-05-07T15:05:27;100611.16;;;16.70;54.50
71299;BME280;59083;47.974;21.722;2023-05-07T15:08:28;100615.59;;;16.82;54.51
71299;BME280;59083;47.974;21.722;2023-05-07T15:11:30;100623.66;;;16.64;53.82
71299;BME280;59083;47.974;21.722;2023-05-07T15:14:31;100626.13;;;16.66;53.64
71299;BME280;59083;47.974;21.722;2023-05-07T15:17:32;100623.53;;;16.77;53.56
71299;BME280;59083;47.974;21.722;2023-05-07T15:20:33;100635.34;;;16.51;54.38
71299;BME280;59083;47.974;21.722;2023-05-07T15:23:34;100613.81;;;16.51;54.70
71299;BME280;59083;47.974;21.722;2023-05-07T15:26:36;100611.62;;;16.67;54.57
71299;BME280;59083;47.974;21.722;2023-05-07T15:29:37;100616.72;;;16.50;54.89
71299;BME280;59083;47.974;21.722;2023-05-07T15:32:38;100628.78;;;16.41;55.66
71299;BME280;59083;47.974;21.722;2023-05-07T15:35:40;100625.09;;;16.35;55.53
71299;BME280;59083;47.974;21.722;2023-05-07T15:38:41;100629.22;;;16.38;55.71
71299;BME280;59083;47.974;21.722;2023-05-07T15:41:42;100652.22;;;16.02;56.10
71299;BME280;59083;47.974;21.722;2023-05-07T15:44:43;100661.78;;;15.98;56.64